createdAt,value
2019-02-12T00:01:31.955Z,0.50
2019-02-12T00:04:03.665Z,0.47
2019-02-12T00:06:35.377Z,0.39
2019-02-12T00:09:09.055Z,0.44
2019-02-12T00:11:41.006Z,0.40
2019-02-12T00:14:12.733Z,0.41
2019-02-12T00:16:44.445Z,0.48
2019-02-12T00:19:16.155Z,0.47
2019-02-12T00:21:47.855Z,0.37
2019-02-12T00:24:19.570Z,0.26
2019-02-12T00:26:51.524Z,0.40
2019-02-12T00:29:23.307Z,0.47
2019-02-12T00:31:55.015Z,0.38
2019-02-12T00:34:27.479Z,0.55
2019-02-12T00:37:09.375Z,0.48
2019-02-12T00:39:41.089Z,0.58
2019-02-12T00:42:12.820Z,0.56
2019-02-12T00:44:44.862Z,0.50
2019-02-12T00:47:16.568Z,0.47
2019-02-12T00:49:48.273Z,0.49
2019-02-12T00:52:19.982Z,0.41
2019-02-12T00:54:51.959Z,0.40
2019-02-12T00:57:23.918Z,0.40
2019-02-12T00:59:55.626Z,0.38
2019-02-12T01:02:27.331Z,0.33
2019-02-12T01:04:59.046Z,0.36
2019-02-12T01:07:30.762Z,0.38
2019-02-12T01:10:02.484Z,0.28
2019-02-12T01:12:35.162Z,0.26
2019-02-12T01:15:09.123Z,0.25
2019-02-12T01:17:41.088Z,0.27
2019-02-12T01:20:13.839Z,0.24
2019-02-12T01:22:45.545Z,0.28
2019-02-12T01:25:17.270Z,0.11
2019-02-12T01:27:48.980Z,0.17
2019-02-12T01:30:20.700Z,0.14
2019-02-12T01:32:52.404Z,0.16
2019-02-12T01:35:24.123Z,0.11
2019-02-12T01:37:55.832Z,0.14
2019-02-12T01:40:27.542Z,0.13
2019-02-12T01:43:02.055Z,0.02
2019-02-12T01:45:33.768Z,0.07
2019-02-12T01:48:05.551Z,0.00
2019-02-12T01:50:37.258Z,0.02
2019-02-12T01:53:09.178Z,0.04
2019-02-12T01:55:41.149Z,-0.13
2019-02-12T01:58:12.949Z,-0.04
2019-02-12T02:00:44.673Z,-0.35
2019-02-12T02:03:16.635Z,0.01
2019-02-12T02:05:48.352Z,-0.09
2019-02-12T02:08:20.064Z,-0.09
2019-02-12T02:10:51.784Z,-0.16
2019-02-12T02:13:23.574Z,-0.17
2019-02-12T02:15:55.281Z,-0.13
2019-02-12T02:18:26.981Z,-0.15
2019-02-12T02:20:58.774Z,-0.21
2019-02-12T02:23:30.491Z,-0.15
2019-02-12T02:26:02.226Z,-0.22
2019-02-12T02:28:34.192Z,-0.16
2019-02-12T02:31:06.171Z,-0.25
2019-02-12T02:33:38.134Z,-0.39
2019-02-12T02:36:09.854Z,-0.23
2019-02-12T02:38:41.560Z,-0.18
2019-02-12T02:41:13.371Z,-0.23
2019-02-12T02:43:45.327Z,-0.21
2019-02-12T02:46:17.057Z,-0.24
2019-02-12T02:48:48.827Z,-0.27
2019-02-12T02:51:20.595Z,-0.29
2019-02-12T02:53:52.307Z,-0.25
2019-02-12T02:56:24.096Z,-0.23
2019-02-12T02:58:56.084Z,-0.22
2019-02-12T03:01:27.791Z,-0.27
2019-02-12T03:04:00.466Z,-0.27
2019-02-12T03:06:33.243Z,-0.24
2019-02-12T03:09:07.242Z,-0.35
2019-02-12T03:11:39.522Z,-0.30
2019-02-12T03:14:11.245Z,-0.29
2019-02-12T03:16:42.966Z,-0.24
2019-02-12T03:19:14.807Z,-0.23
2019-02-12T03:21:46.794Z,-0.26
2019-02-12T03:24:18.537Z,-0.34
2019-02-12T03:26:50.276Z,-0.28
2019-02-12T03:29:22.018Z,-0.26
2019-02-12T03:31:53.761Z,-0.31
2019-02-12T03:34:25.546Z,-0.30
2019-02-12T03:36:57.236Z,-0.30
2019-02-12T03:39:28.974Z,-0.33
2019-02-12T03:42:00.798Z,-0.29
2019-02-12T03:44:32.637Z,-0.22
2019-02-12T03:47:04.454Z,-0.25
2019-02-12T03:49:36.268Z,-0.26
2019-02-12T03:52:12.988Z,-0.23
2019-02-12T03:54:43.066Z,-0.25
2019-02-12T03:57:14.984Z,-0.27
2019-02-12T03:59:46.789Z,-0.26
2019-02-12T04:02:18.686Z,-0.28
2019-02-12T04:04:50.504Z,-0.37
2019-02-12T04:07:22.756Z,-0.23
2019-02-12T04:09:54.494Z,-0.28
2019-02-12T04:12:26.235Z,-0.23
2019-02-12T04:14:58.260Z,-0.35
2019-02-12T04:17:29.975Z,-0.25
2019-02-12T04:20:01.703Z,-0.27
2019-02-12T04:22:33.532Z,-0.22
2019-02-12T04:25:05.514Z,-0.04
2019-02-12T04:27:37.246Z,-0.01
2019-02-12T04:30:10.546Z,-0.04
2019-02-12T04:32:42.290Z,0.02
2019-02-12T04:35:14.171Z,-0.04
2019-02-12T04:37:45.909Z,-0.03
2019-02-12T04:40:17.628Z,-0.10
2019-02-12T04:42:49.385Z,-0.04
2019-02-12T04:45:21.117Z,-0.06
2019-02-12T04:47:52.862Z,-0.09
2019-02-12T04:50:24.929Z,-0.24
2019-02-12T04:52:56.809Z,-0.10
2019-02-12T04:55:28.621Z,-0.15
2019-02-12T04:58:00.438Z,-0.10
2019-02-12T05:00:32.169Z,-0.08
2019-02-12T05:03:03.910Z,-0.12
2019-02-12T05:05:35.647Z,-0.08
2019-02-12T05:08:07.463Z,-0.10
2019-02-12T05:10:44.750Z,-0.19
2019-02-12T05:13:16.484Z,-0.15
2019-02-12T05:15:48.216Z,-0.24
2019-02-12T05:18:19.949Z,-0.15
2019-02-12T05:20:51.690Z,-0.23
2019-02-12T05:23:23.422Z,-0.13
2019-02-12T05:25:55.164Z,-0.14
2019-02-12T05:28:27.164Z,-0.36
2019-02-12T05:31:02.020Z,-0.24
2019-02-12T05:33:34.154Z,-0.06
2019-02-12T05:36:05.939Z,-0.04
2019-02-12T05:38:37.680Z,-0.03
2019-02-12T05:41:11.226Z,-0.05
2019-02-12T05:43:42.985Z,-0.06
2019-02-12T05:46:14.824Z,-0.27
2019-02-12T05:48:46.554Z,-0.11
2019-02-12T05:51:18.308Z,-0.07
2019-02-12T05:53:50.050Z,-0.02
2019-02-12T05:56:21.779Z,0.04
2019-02-12T05:58:53.521Z,0.02
2019-02-12T06:01:25.247Z,-0.01
2019-02-12T06:03:56.993Z,-0.03
2019-02-12T06:06:28.738Z,-0.05
2019-02-12T06:09:00.477Z,-0.09
2019-02-12T06:11:34.138Z,-0.14
2019-02-12T06:14:06.021Z,-0.13
2019-02-12T06:16:37.769Z,-0.10
2019-02-12T06:19:11.585Z,-0.04
2019-02-12T06:21:43.207Z,-0.16
2019-02-12T06:24:15.211Z,-0.08
2019-02-12T06:26:47.476Z,-0.11
2019-02-12T06:29:19.311Z,-0.29
2019-02-12T06:31:51.044Z,-0.06
2019-02-12T06:34:22.809Z,-0.21
2019-02-12T06:36:54.622Z,-0.21
2019-02-12T06:39:26.369Z,-0.28
2019-02-12T06:41:58.098Z,-0.14
2019-02-12T06:44:29.838Z,-0.20
2019-02-12T06:47:01.576Z,-0.14
2019-02-12T06:49:33.338Z,-0.18
2019-02-12T06:52:05.140Z,-0.18
2019-02-12T06:54:36.882Z,-0.14
2019-02-12T06:57:09.864Z,-0.22
2019-02-12T06:59:42.579Z,-0.23
2019-02-12T07:03:07.808Z,-0.09
2019-02-12T07:05:49.127Z,-0.20
2019-02-12T07:08:56.255Z,-0.29
2019-02-12T07:12:34.765Z,-0.21
2019-02-12T07:16:04.033Z,-0.11
2019-02-12T07:19:25.197Z,-0.10
2019-02-12T07:22:38.232Z,-0.18
2019-02-12T07:25:28.851Z,-0.14
2019-02-12T07:28:49.705Z,-0.09
2019-02-12T07:32:16.066Z,-0.13
2019-02-12T07:35:43.817Z,-0.19
2019-02-12T07:38:57.125Z,-0.08
2019-02-12T07:41:48.769Z,-0.15
2019-02-12T07:44:41.188Z,-0.07
2019-02-12T07:48:04.520Z,-0.15
2019-02-12T07:50:57.431Z,-0.13
2019-02-12T07:54:37.665Z,-0.09
2019-02-12T07:58:28.452Z,-0.20
2019-02-12T08:01:53.846Z,-0.11
2019-02-12T08:05:02.180Z,-0.03
2019-02-12T08:08:23.055Z,-0.12
2019-02-12T08:11:53.324Z,-0.05
2019-02-12T08:15:05.152Z,-0.20
2019-02-12T08:18:24.891Z,-0.02
2019-02-12T08:21:35.250Z,0.01
2019-02-12T08:24:51.676Z,0.00
2019-02-12T08:28:36.758Z,0.03
2019-02-12T08:36:19.203Z,0.16
2019-02-12T08:39:23.751Z,0.06
2019-02-12T08:42:40.506Z,0.18
2019-02-12T08:46:05.933Z,0.05
2019-02-12T08:49:27.676Z,0.22
2019-02-12T08:52:41.037Z,0.23
2019-02-12T08:56:03.599Z,0.20
2019-02-12T08:59:26.627Z,0.27
2019-02-12T09:02:38.021Z,0.28
2019-02-12T09:06:06.876Z,0.29
2019-02-12T09:09:30.053Z,0.29
2019-02-12T09:12:57.668Z,0.29
2019-02-12T09:16:37.708Z,0.27
2019-02-12T09:19:47.166Z,0.23
2019-02-12T09:23:16.068Z,0.36
2019-02-12T09:26:18.855Z,0.35
2019-02-12T09:30:02.518Z,0.28
2019-02-12T09:33:31.906Z,0.37
2019-02-12T09:37:16.745Z,0.41
2019-02-12T09:40:55.319Z,0.42
2019-02-12T09:44:43.962Z,0.53
2019-02-12T09:48:05.351Z,0.61
2019-02-12T09:51:44.077Z,0.69
2019-02-12T09:55:04.961Z,0.70
2019-02-12T09:58:02.067Z,0.74
2019-02-12T10:00:53.791Z,0.76
2019-02-12T10:04:33.715Z,0.67
2019-02-12T10:07:29.314Z,0.64
2019-02-12T10:10:27.185Z,0.54
2019-02-12T10:13:43.426Z,0.60
2019-02-12T10:16:48.613Z,0.63
2019-02-12T10:19:57.589Z,0.67
2019-02-12T10:24:02.877Z,0.62
2019-02-12T10:26:35.855Z,0.60
2019-02-12T10:29:29.438Z,0.71
2019-02-12T10:32:08.258Z,0.72
2019-02-12T10:34:32.630Z,0.70
2019-02-12T10:37:04.437Z,0.57
2019-02-12T10:39:36.289Z,0.71
2019-02-12T10:42:08.045Z,0.74
2019-02-12T10:44:39.780Z,0.69
2019-02-12T10:47:11.687Z,0.77
2019-02-12T10:49:43.429Z,0.77
2019-02-12T10:52:15.167Z,0.75
2019-02-12T10:54:47.163Z,0.75
2019-02-12T10:57:19.147Z,0.69
2019-02-12T10:59:50.904Z,0.80
2019-02-12T11:02:22.636Z,0.84
2019-02-12T11:04:54.472Z,0.87
2019-02-12T11:07:26.221Z,0.85
2019-02-12T11:09:57.954Z,0.87
2019-02-12T11:12:30.062Z,0.86
2019-02-12T11:15:02.176Z,0.84
2019-02-12T11:17:34.455Z,0.91
2019-02-12T11:20:07.077Z,1.01
2019-02-12T11:22:46.011Z,1.04
2019-02-12T11:25:18.143Z,1.01
2019-02-12T11:27:59.723Z,0.92
2019-02-12T11:30:55.753Z,1.00
2019-02-12T11:33:10.513Z,0.97
2019-02-12T11:35:42.630Z,0.97
2019-02-12T11:38:14.418Z,1.00
2019-02-12T11:40:46.282Z,1.03
2019-02-12T11:43:18.007Z,0.99
2019-02-12T11:45:49.974Z,0.96
2019-02-12T11:48:21.749Z,0.87
2019-02-12T11:50:53.773Z,0.99
2019-02-12T11:53:25.607Z,0.99
2019-02-12T11:55:57.416Z,1.01
2019-02-12T11:58:29.176Z,0.95
2019-02-12T12:01:03.308Z,1.04
2019-02-12T12:03:35.076Z,1.08
2019-02-12T12:06:06.982Z,1.08
2019-02-12T12:08:38.782Z,1.11
2019-02-12T12:11:10.618Z,1.15
2019-02-12T12:13:42.378Z,1.24
2019-02-12T12:16:14.337Z,1.21
2019-02-12T12:18:46.322Z,1.32
2019-02-12T12:21:18.184Z,1.33
2019-02-12T12:23:49.993Z,1.35
2019-02-12T12:26:21.741Z,1.41
2019-02-12T12:28:53.539Z,1.43
2019-02-12T12:31:25.358Z,1.46
2019-02-12T12:33:57.092Z,1.46
2019-02-12T12:36:28.861Z,1.49
2019-02-12T12:39:00.964Z,1.52
2019-02-12T12:41:33.017Z,1.49
2019-02-12T12:44:05.157Z,1.51
2019-02-12T12:46:36.970Z,1.46
2019-02-12T12:49:09.206Z,1.47
2019-02-12T12:51:40.942Z,1.50
2019-02-12T12:54:12.789Z,1.54
2019-02-12T12:56:44.847Z,1.62
2019-02-12T12:59:16.605Z,1.50
2019-02-12T13:01:48.364Z,1.51
2019-02-12T13:04:21.066Z,1.51
2019-02-12T13:06:52.820Z,1.50
2019-02-12T13:09:24.579Z,1.47
2019-02-12T13:11:56.337Z,1.56
2019-02-12T13:14:28.078Z,1.57
2019-02-12T13:17:00.137Z,1.60
2019-02-12T13:19:31.888Z,1.56
2019-02-12T13:22:03.687Z,1.62
2019-02-12T13:24:35.580Z,1.51
2019-02-12T13:27:07.389Z,1.52
2019-02-12T13:29:39.328Z,1.67
2019-02-12T13:32:11.063Z,1.74
2019-02-12T13:34:43.085Z,1.80
2019-02-12T13:37:14.883Z,1.84
2019-02-12T13:39:47.013Z,1.91
2019-02-12T13:42:18.826Z,1.96
2019-02-12T13:44:50.564Z,1.98
2019-02-12T13:47:22.296Z,2.03
2019-02-12T13:49:54.044Z,1.90
2019-02-12T13:52:25.852Z,2.00
2019-02-12T13:54:57.661Z,1.97
2019-02-12T13:57:29.401Z,1.90
2019-02-12T14:00:01.295Z,1.91
2019-02-12T14:02:34.579Z,1.91
2019-02-12T14:05:08.954Z,1.89
2019-02-12T14:07:40.769Z,1.87
2019-02-12T14:10:12.801Z,1.82
2019-02-12T14:12:44.543Z,1.81
2019-02-12T14:15:16.384Z,1.80
2019-02-12T14:17:48.202Z,1.84
2019-02-12T14:20:19.922Z,1.83
2019-02-12T14:22:51.739Z,1.83
2019-02-12T14:25:25.707Z,1.86
2019-02-12T14:27:57.051Z,1.84
2019-02-12T14:30:28.860Z,1.85
2019-02-12T14:33:01.162Z,1.90
2019-02-12T14:35:32.892Z,1.86
2019-02-12T14:38:04.722Z,1.89
2019-02-12T14:40:36.476Z,1.84
2019-02-12T14:43:14.104Z,1.90
2019-02-12T14:45:42.975Z,1.94
2019-02-12T14:48:14.873Z,2.00
2019-02-12T14:50:46.685Z,1.98
2019-02-12T14:53:18.437Z,1.99
2019-02-12T14:55:50.301Z,1.95
2019-02-12T14:58:22.058Z,1.96
2019-02-12T15:00:54.050Z,2.01
2019-02-12T15:03:25.785Z,1.98
2019-02-12T15:05:57.627Z,2.03
2019-02-12T15:08:29.368Z,1.95
2019-02-12T15:11:01.106Z,1.95
2019-02-12T15:13:32.913Z,1.96
2019-02-12T15:16:04.819Z,1.98
2019-02-12T15:18:36.726Z,2.02
2019-02-12T15:21:09.845Z,2.09
2019-02-12T15:23:41.593Z,2.12
2019-02-12T15:26:13.499Z,2.13
2019-02-12T15:28:45.339Z,2.13
2019-02-12T15:31:17.218Z,2.14
2019-02-12T15:33:48.956Z,2.16
2019-02-12T15:36:20.760Z,2.01
2019-02-12T15:38:52.498Z,2.06
2019-02-12T15:41:24.297Z,2.09
2019-02-12T15:43:56.126Z,2.09
2019-02-12T15:46:27.860Z,2.07
2019-02-12T15:48:59.601Z,2.06
2019-02-12T15:51:31.334Z,2.06
2019-02-12T15:54:03.167Z,2.00
2019-02-12T15:56:34.893Z,1.98
2019-02-12T15:59:06.753Z,1.92
2019-02-12T16:01:38.557Z,1.96
2019-02-12T16:04:10.304Z,2.01
2019-02-12T16:06:42.904Z,1.99
2019-02-12T16:09:17.655Z,1.92
2019-02-12T16:11:49.154Z,1.87
2019-02-12T16:14:20.977Z,1.97
2019-02-12T16:16:54.081Z,1.97
2019-02-12T16:19:25.912Z,1.90
2019-02-12T16:21:57.678Z,1.92
2019-02-12T16:24:29.424Z,1.87
2019-02-12T16:27:01.481Z,1.89
2019-02-12T16:29:33.237Z,1.78
2019-02-12T16:32:05.046Z,1.89
2019-02-12T16:34:37.750Z,1.93
2019-02-12T16:37:09.486Z,1.83
2019-02-12T16:39:41.252Z,1.97
2019-02-12T16:42:13.048Z,1.92
2019-02-12T16:44:44.802Z,2.04
2019-02-12T16:47:16.550Z,1.94
2019-02-12T16:49:48.293Z,1.95
2019-02-12T16:52:21.079Z,2.01
2019-02-12T16:54:52.991Z,2.04
2019-02-12T16:57:24.733Z,2.02
2019-02-12T16:59:56.473Z,2.00
2019-02-12T17:02:28.214Z,1.99
2019-02-12T17:05:00.349Z,2.04
2019-02-12T17:07:33.242Z,1.91
2019-02-12T17:10:05.488Z,2.00
2019-02-12T17:12:37.348Z,2.01
2019-02-12T17:15:10.614Z,1.99
2019-02-12T17:17:42.505Z,1.92
2019-02-12T17:20:16.969Z,1.97
2019-02-12T17:22:49.062Z,1.82
2019-02-12T17:25:20.827Z,1.89
2019-02-12T17:27:52.907Z,1.83
2019-02-12T17:30:24.721Z,1.84
2019-02-12T17:32:57.838Z,1.91
2019-02-12T17:35:29.536Z,1.81
2019-02-12T17:38:01.259Z,1.79
2019-02-12T17:40:32.999Z,1.85
2019-02-12T17:43:04.750Z,1.92
2019-02-12T17:45:36.641Z,1.92
2019-02-12T17:48:08.373Z,2.03
2019-02-12T17:50:40.267Z,1.90
2019-02-12T17:53:13.092Z,1.84
2019-02-12T17:55:44.952Z,1.82
2019-02-12T17:58:16.682Z,1.77
2019-02-12T18:00:48.499Z,1.78
2019-02-12T18:03:20.308Z,2.00
2019-02-12T18:05:53.049Z,1.91
2019-02-12T18:08:24.868Z,1.91
2019-02-12T18:10:56.612Z,1.92
2019-02-12T18:13:28.599Z,1.87
2019-02-12T18:16:00.425Z,1.81
2019-02-12T18:18:32.151Z,1.80
2019-02-12T18:21:03.978Z,1.79
2019-02-12T18:23:35.723Z,1.80
2019-02-12T18:26:07.447Z,1.76
2019-02-12T18:28:39.260Z,1.75
2019-02-12T18:31:11.143Z,1.82
2019-02-12T18:33:42.890Z,1.78
2019-02-12T18:36:14.697Z,1.74
2019-02-12T18:38:46.433Z,1.72
2019-02-12T18:41:18.168Z,1.68
2019-02-12T18:43:49.992Z,1.64
2019-02-12T18:46:21.727Z,1.54
2019-02-12T18:48:53.439Z,1.46
2019-02-12T18:51:26.207Z,1.48
2019-02-12T18:53:58.011Z,1.48
2019-02-12T18:56:29.808Z,1.52
2019-02-12T18:59:01.569Z,1.53
2019-02-12T19:01:33.290Z,1.47
2019-02-12T19:04:05.137Z,1.47
2019-02-12T19:06:36.957Z,1.48
2019-02-12T19:09:12.958Z,1.50
2019-02-12T19:11:53.998Z,1.52
2019-02-12T19:14:18.140Z,1.53
2019-02-12T19:16:49.858Z,1.49
2019-02-12T19:19:21.611Z,1.47
2019-02-12T19:21:53.334Z,1.45
2019-02-12T19:24:25.084Z,1.37
2019-02-12T19:26:56.910Z,1.37
2019-02-12T19:29:28.651Z,1.37
2019-02-12T19:32:00.787Z,1.38
2019-02-12T19:34:32.530Z,1.37
2019-02-12T19:37:04.408Z,1.34
2019-02-12T19:39:36.144Z,1.31
2019-02-12T19:42:07.875Z,1.32
2019-02-12T19:44:39.617Z,1.38
2019-02-12T19:47:11.347Z,1.35
2019-02-12T19:49:43.088Z,1.35
2019-02-12T19:52:14.888Z,1.32
2019-02-12T19:54:46.700Z,1.31
2019-02-12T19:57:18.441Z,1.31
2019-02-12T19:59:50.263Z,1.33
2019-02-12T20:02:21.999Z,1.37
2019-02-12T20:04:54.576Z,1.39
2019-02-12T20:07:26.569Z,1.41
2019-02-12T20:09:58.308Z,1.40
2019-02-12T20:12:31.072Z,1.38
2019-02-12T20:15:02.819Z,1.34
2019-02-12T20:17:34.548Z,1.32
2019-02-12T20:20:07.995Z,1.31
2019-02-12T20:22:40.131Z,1.29
2019-02-12T20:25:12.996Z,1.32
2019-02-12T20:27:44.869Z,1.25
2019-02-12T20:30:16.753Z,1.22
2019-02-12T20:32:48.549Z,1.27
2019-02-12T20:35:20.333Z,1.22
2019-02-12T20:37:52.134Z,1.66
2019-02-12T20:40:23.952Z,1.52
2019-02-12T20:42:55.755Z,1.45
2019-02-12T20:45:29.164Z,1.65
2019-02-12T20:48:00.897Z,1.65
2019-02-12T20:50:32.781Z,1.75
2019-02-12T20:53:04.578Z,1.68
2019-02-12T20:55:36.602Z,1.51
2019-02-12T20:58:09.348Z,1.48
2019-02-12T21:00:41.146Z,1.49
2019-02-12T21:03:12.955Z,1.49
2019-02-12T21:05:44.784Z,1.48
2019-02-12T21:08:16.590Z,1.46
2019-02-12T21:10:48.320Z,1.48
2019-02-12T21:13:20.045Z,1.55
2019-02-12T21:15:51.837Z,1.51
2019-02-12T21:18:23.571Z,1.69
2019-02-12T21:20:55.377Z,1.69
2019-02-12T21:23:27.766Z,1.60
2019-02-12T21:25:59.563Z,1.58
2019-02-12T21:28:31.437Z,1.54
2019-02-12T21:31:03.516Z,1.47
2019-02-12T21:33:35.313Z,1.53
2019-02-12T21:36:07.144Z,1.53
2019-02-12T21:38:38.887Z,1.64
2019-02-12T21:41:11.417Z,1.75
2019-02-12T21:43:43.316Z,1.62
2019-02-12T21:46:15.465Z,1.68
2019-02-12T21:48:47.271Z,1.65
2019-02-12T21:51:19.021Z,1.66
2019-02-12T21:53:51.013Z,1.69
2019-02-12T21:56:22.841Z,1.48
2019-02-12T21:58:54.580Z,1.49
2019-02-12T22:01:26.406Z,1.56
2019-02-12T22:03:58.210Z,1.45
2019-02-12T22:06:29.969Z,1.44
2019-02-12T22:09:01.706Z,1.41
2019-02-12T22:11:34.426Z,1.39
2019-02-12T22:14:07.207Z,1.36
2019-02-12T22:16:39.002Z,1.33
2019-02-12T22:19:10.739Z,1.29
2019-02-12T22:21:42.502Z,1.25
2019-02-12T22:24:14.271Z,1.22
2019-02-12T22:26:46.021Z,1.25
2019-02-12T22:29:17.751Z,1.25
2019-02-12T22:31:49.525Z,1.20
2019-02-12T22:34:21.258Z,1.35
2019-02-12T22:36:53.027Z,1.30
2019-02-12T22:39:24.752Z,1.26
2019-02-12T22:41:56.568Z,1.26
2019-02-12T22:44:28.316Z,1.22
2019-02-12T22:47:00.090Z,1.26
2019-02-12T22:49:31.827Z,1.25
2019-02-12T22:52:03.655Z,1.27
2019-02-12T22:54:35.468Z,1.32
2019-02-12T22:57:07.303Z,1.26
2019-02-12T22:59:39.031Z,1.26
2019-02-12T23:02:11.387Z,1.29
2019-02-12T23:04:43.222Z,1.29
2019-02-12T23:07:15.415Z,1.27
2019-02-12T23:09:47.296Z,1.22
2019-02-12T23:12:19.129Z,1.19
2019-02-12T23:14:50.864Z,1.17
2019-02-12T23:17:22.698Z,1.04
2019-02-12T23:19:54.434Z,1.04
2019-02-12T23:22:26.183Z,0.99
2019-02-12T23:24:57.910Z,0.96
2019-02-12T23:27:29.732Z,0.92
2019-02-12T23:30:01.479Z,0.85
2019-02-12T23:32:33.477Z,0.74
2019-02-12T23:35:05.701Z,0.65
2019-02-12T23:37:37.441Z,0.57
2019-02-12T23:40:09.804Z,0.57
2019-02-12T23:42:41.784Z,0.52
2019-02-12T23:45:13.802Z,0.45
2019-02-12T23:47:45.733Z,0.24
2019-02-12T23:50:19.372Z,0.24
2019-02-12T23:52:51.108Z,0.27
2019-02-12T23:55:22.987Z,0.20
2019-02-12T23:57:54.967Z,0.24
